Temecula, CA (92589)

9:37 PM PDT on May 29, 2015 (GMT -0700)
Crowne Hill | | Change Station
CLOSE
Current Station
Personal Weather Station
Location: Temecula, CA
Elevation: 1260 ft
Nearby Weather Stations

Elev 1260 ft 33.50 °N, 117.08 °W | Updated 2 minutes ago

Clear
Clear
65.5 °F
Feels Like 65.5 °F
N
0.0
Wind Variable Wind from SW
Gusts 0.0 mph

Today
High -- | Low -- °F
--% Chance of Precip.
Yesterday
High -- | Low -- °F
Precip. -- in
5:40 AM 7:51 PM
Waxing Gibbous, 88% visible
Pressure 29.89 in
Visibility 10.0 miles
Clouds Clear
Dew Point 32 °F
Humidity 23%
Rainfall 0.00 in
Snow Depth Not available.
UV 0 out of 12
Pollen 4.10 out of 12
Air Quality Not available.
Flu Activity Sporadic
METAR KRIV 300358Z AUTO 31007KT 10SM CLR 23/09 A2992 RMK AO2 SLP120 T02260089

More Conditions Fewer Conditions

Pressure 29.89 in
Visibility 10.0 miles
Clouds Clear
Dew Point 32 °F
Humidity 23%
Rainfall 0.00 in
Snow Depth Not available.
UV 0 out of 12
Pollen 4.10 out of 12
Air Quality Not available.
Flu Activity Sporadic
METAR KRIV 300358Z AUTO 31007KT 10SM CLR 23/09 A2992 RMK AO2 SLP120 T02260089

More Conditions Fewer Conditions

10-Day Weather Forecast

Almanac

Astronomy

May. 29, 2015 Rise Set
Actual Time
Civil Twilight
Nautical Twilight
Astronomical Twilight
Moon
Length of Visible Light
Length of Day
Tomorrow will be .
, % of the Moon is Illuminated

Today's Extremes

State Highs State Lows

Community

WunderPhotos

Upload Photos

1,825,450 photos uploaded!

WunderBlogs® & News

Nearby

Air Quality

  Air Quality AQ Index Pollutant
Not available.

Snow Depth

Station Depth Elevation

Earthquake Activity

City Distance Mag. Time & Date
Minimum magnitude displayed is 2.5.

Coastal Water Temperatures

Place Temperature

Stations

Nearby Weather Stations

Station Location Temp. Windchill Dew Point Humidity Wind Precip. Elev Updated Type